»·PEaware :: N2634K KLMT-KRNO

N2634K :: KLMT-KRNO

FLIGHT INFORMATION

Flight Status: Arrived
Operator: Privately registered:
United States
More flights under this callsign
Pilot: Mark C. (15204)
Aircraft: CESSNA 310
(C310)
More flights by this aircraft type
Origin: KLMT Klamath Falls Intl
United States
Destination: KRNO Reno/Tahoe Intl
United States
More flights between these airports :: More routes between these airports
Route: +LMT6 FMG
File this flight plan on PilotEdge
Remarks:
Altitude:
(Current/Filed)
11,000ft
Speed:
(Current/Filed)
185kts
Departed: 19-Aug-17 10:12 AM
Arrived: 19-Aug-17 11:22 AM
Distance/Time
Traveled:
182nm/1:10
Distance/Time
To Go:
Arrived

Flight Plot

Page will automatically refresh every two minutes.

Flight plan parsing failed; only flown route is shown


Map Options




Map Legend


Flown Route
Filed Route
Departure Airport
Arrival Airport
Navaid (VOR, NDB)
Fix

Horizontal Profiles

Position Reports

Time Latitude Longitude Heading Altitude Ground
Speed
19-Aug-17 09:48 42.165314 -121.742957 89 4091ft 0kts
19-Aug-17 09:49 42.165314 -121.742957 89 4091ft 0kts
19-Aug-17 09:50 42.165314 -121.742957 89 4091ft 0kts
19-Aug-17 09:51 42.165314 -121.742957 89 4091ft 0kts
19-Aug-17 09:52 42.165314 -121.742957 89 4091ft 0kts
19-Aug-17 09:53 42.165314 -121.742957 89 4091ft 0kts
19-Aug-17 09:54 42.165314 -121.742957 89 4091ft 0kts
19-Aug-17 09:55 42.165314 -121.742957 89 4091ft 0kts
19-Aug-17 09:56 42.165314 -121.742957 89 4091ft 0kts
19-Aug-17 09:57 42.165314 -121.742957 89 4091ft 0kts
19-Aug-17 09:58 42.165314 -121.742957 89 4091ft 0kts
19-Aug-17 09:59 42.165314 -121.742957 89 4091ft 0kts
19-Aug-17 10:00 42.165314 -121.742957 89 4091ft 0kts
19-Aug-17 10:01 42.165314 -121.742957 89 4091ft 0kts
19-Aug-17 10:02 42.165314 -121.742957 89 4091ft 0kts
19-Aug-17 10:03 42.165314 -121.742957 89 4091ft 0kts
19-Aug-17 10:04 42.165314 -121.742957 89 4091ft 0kts
19-Aug-17 10:05 42.165314 -121.742957 89 4091ft 0kts
19-Aug-17 10:06 42.165314 -121.742957 89 4091ft 0kts
19-Aug-17 10:07 42.165314 -121.742957 89 4091ft 0kts
19-Aug-17 10:08 42.165314 -121.742957 89 4091ft 0kts
19-Aug-17 10:09 42.164782 -121.742532 166 4091ft 14kts
19-Aug-17 10:10 42.161661 -121.742472 178 4091ft 7kts
19-Aug-17 10:10 42.156810 -121.742460 165 4091ft 12kts
19-Aug-17 10:11 42.157899 -121.741609 85 4091ft 14kts
19-Aug-17 10:13 42.154339 -121.735527 158 4091ft 26kts
19-Aug-17 10:13 42.147559 -121.731914 159 4091ft 31kts
19-Aug-17 10:14 42.142390 -121.728904 99 4091ft 17kts
19-Aug-17 10:15 42.153687 -121.731999 338 4170ft 106kts
19-Aug-17 10:16 42.182296 -121.749225 333 5535ft 124kts
19-Aug-17 10:18 42.218628 -121.774217 333 7164ft 124kts
19-Aug-17 10:19 42.243018 -121.792755 333 8293ft 117kts
19-Aug-17 10:20 42.271852 -121.816048 333 9403ft 125kts
19-Aug-17 10:21 42.292974 -121.848518 243 10405ft 141kts
19-Aug-17 10:22 42.255753 -121.840634 142 11010ft 169kts
19-Aug-17 10:23 42.217166 -121.794712 136 11001ft 195kts
19-Aug-17 10:24 42.175871 -121.745324 138 10999ft 199kts
19-Aug-17 10:25 42.128323 -121.707375 150 10997ft 196kts
19-Aug-17 10:26 42.081447 -121.670738 148 10998ft 193kts
19-Aug-17 10:27 42.035638 -121.633321 147 10997ft 192kts
19-Aug-17 10:28 41.989989 -121.595737 147 10987ft 192kts
19-Aug-17 10:29 41.944173 -121.558017 147 10988ft 192kts
19-Aug-17 10:30 41.898248 -121.520287 147 11066ft 201kts
19-Aug-17 10:31 41.855349 -121.485164 148 11787ft 166kts
19-Aug-17 10:32 41.817530 -121.454106 151 12463ft 152kts
19-Aug-17 10:33 41.781579 -121.424554 151 13034ft 169kts
19-Aug-17 10:34 41.738279 -121.389322 150 12995ft 182kts
19-Aug-17 10:35 41.694877 -121.353778 150 12996ft 183kts
19-Aug-17 10:36 41.651184 -121.318146 150 13008ft 184kts
19-Aug-17 10:37 41.607424 -121.282567 150 13012ft 184kts
19-Aug-17 10:38 41.563671 -121.247001 150 13009ft 184kts
19-Aug-17 10:39 41.519714 -121.211392 150 12997ft 184kts
19-Aug-17 10:40 41.475970 -121.175960 150 12997ft 183kts
19-Aug-17 10:41 41.432338 -121.140685 150 13006ft 184kts
19-Aug-17 10:42 41.388406 -121.105235 150 13003ft 184kts
19-Aug-17 10:43 41.344571 -121.069918 150 13000ft 184kts
19-Aug-17 10:44 41.300411 -121.034339 150 12999ft 185kts
19-Aug-17 10:45 41.256130 -120.998753 150 12999ft 186kts
19-Aug-17 10:46 41.211807 -120.963208 150 12993ft 186kts
19-Aug-17 10:47 41.167203 -120.927496 150 12994ft 186kts
19-Aug-17 10:48 41.122905 -120.892090 150 13023ft 184kts
19-Aug-17 10:49 41.078933 -120.857008 150 13049ft 185kts
19-Aug-17 10:50 41.034584 -120.821672 150 13048ft 186kts
19-Aug-17 10:51 40.990213 -120.786373 150 13045ft 186kts
19-Aug-17 10:52 40.945545 -120.750899 150 13027ft 187kts
19-Aug-17 10:53 40.900929 -120.715517 150 13016ft 186kts
19-Aug-17 10:54 40.856710 -120.680511 150 13045ft 185kts
19-Aug-17 10:55 40.812391 -120.645480 150 13049ft 185kts
19-Aug-17 10:56 40.768359 -120.610730 150 13070ft 184kts
19-Aug-17 10:57 40.724409 -120.576102 150 13076ft 184kts
19-Aug-17 10:58 40.680167 -120.541294 150 13074ft 185kts
19-Aug-17 10:59 40.635985 -120.506586 150 13069ft 185kts
19-Aug-17 11:00 40.591626 -120.471796 150 13075ft 184kts
19-Aug-17 11:01 40.547637 -120.437350 150 13081ft 184kts
19-Aug-17 11:02 40.503609 -120.402927 150 13081ft 184kts
19-Aug-17 11:03 40.459417 -120.368429 150 13080ft 184kts
19-Aug-17 11:04 40.415384 -120.334107 150 13079ft 184kts
19-Aug-17 11:05 40.371304 -120.299802 150 13077ft 184kts
19-Aug-17 11:06 40.327064 -120.265439 150 13077ft 184kts
19-Aug-17 11:07 40.283006 -120.231277 150 13077ft 184kts
19-Aug-17 11:08 40.238741 -120.196992 150 13052ft 185kts
19-Aug-17 11:09 40.194507 -120.162786 151 13047ft 184kts
19-Aug-17 11:10 40.148669 -120.127220 150 13049ft 189kts
19-Aug-17 11:11 40.103810 -120.092766 150 13059ft 185kts
19-Aug-17 11:12 40.059513 -120.058688 150 13031ft 185kts
19-Aug-17 11:13 40.015246 -120.024667 150 13016ft 184kts
19-Aug-17 11:14 39.971095 -119.990789 150 13011ft 183kts
19-Aug-17 11:15 39.927247 -119.957187 151 13000ft 183kts
19-Aug-17 11:16 39.883416 -119.923580 151 12993ft 181kts
19-Aug-17 11:17 39.840048 -119.890414 151 12994ft 180kts
19-Aug-17 11:18 39.793303 -119.854754 150 12124ft 209kts
19-Aug-17 11:19 39.741730 -119.815332 151 10817ft 217kts
19-Aug-17 11:20 39.689913 -119.775935 149 9422ft 213kts
19-Aug-17 11:21 39.638537 -119.736961 149 8021ft 219kts
19-Aug-17 11:22 39.592650 -119.729569 230 6885ft 140kts
19-Aug-17 11:23 39.568422 -119.763717 205 5420ft 125kts
19-Aug-17 11:24 39.538777 -119.769174 179 5082ft 108kts
19-Aug-17 11:25 39.509288 -119.769225 180 4420ft 88kts
19-Aug-17 11:26 39.504058 -119.770077 304 4418ft 0kts
19-Aug-17 11:27 39.505417 -119.771562 358 4418ft 10kts
19-Aug-17 11:28 39.509639 -119.772951 339 4418ft 10kts
19-Aug-17 11:29 39.510522 -119.773002 358 4418ft 0kts

Navigation Log

Ident Type
Flight plan parsing failed, navigation log unavailable